createdAt,value
2023-05-05T00:00:49.536Z,20.68
2023-05-05T00:03:15.910Z,20.67
2023-05-05T00:05:42.508Z,20.67
2023-05-05T00:08:09.161Z,20.66
2023-05-05T00:10:35.483Z,20.64
2023-05-05T00:13:01.945Z,20.63
2023-05-05T00:15:28.499Z,20.60
2023-05-05T00:17:54.944Z,20.55
2023-05-05T00:20:21.493Z,20.51
2023-05-05T00:22:47.974Z,20.45
2023-05-05T00:25:14.396Z,20.40
2023-05-05T00:27:41.082Z,20.36
2023-05-05T00:30:07.562Z,20.31
2023-05-05T00:32:34.162Z,20.28
2023-05-05T00:35:01.467Z,20.24
2023-05-05T00:37:27.685Z,20.19
2023-05-05T00:39:53.920Z,20.15
2023-05-05T00:42:20.181Z,20.11
2023-05-05T00:44:46.394Z,20.09
2023-05-05T00:47:12.691Z,20.05
2023-05-05T00:49:39.378Z,20.02
2023-05-05T00:52:05.825Z,19.98
2023-05-05T00:54:32.139Z,19.94
2023-05-05T00:56:58.362Z,19.91
2023-05-05T00:59:28.854Z,19.90
2023-05-05T01:01:55.289Z,19.86
2023-05-05T01:04:21.642Z,19.82
2023-05-05T01:06:47.864Z,19.78
2023-05-05T01:09:14.084Z,19.77
2023-05-05T01:11:40.355Z,19.73
2023-05-05T01:14:06.653Z,19.70
2023-05-05T01:16:32.914Z,19.67
2023-05-05T01:19:00.329Z,19.64
2023-05-05T01:21:27.054Z,19.62
2023-05-05T01:23:53.273Z,19.59
2023-05-05T01:26:19.572Z,19.55
2023-05-05T01:28:46.051Z,19.52
2023-05-05T01:31:12.387Z,19.50
2023-05-05T01:33:38.693Z,19.47
2023-05-05T01:36:05.036Z,19.46
2023-05-05T01:38:31.599Z,19.44
2023-05-05T01:40:57.978Z,19.43
2023-05-05T01:43:24.278Z,19.41
2023-05-05T01:45:50.848Z,19.38
2023-05-05T01:48:17.103Z,19.35
2023-05-05T01:50:46.274Z,19.33
2023-05-05T01:53:15.034Z,19.32
2023-05-05T01:55:41.425Z,19.29
2023-05-05T01:58:07.790Z,19.27
2023-05-05T02:00:37.116Z,19.24
2023-05-05T02:03:03.564Z,19.22
2023-05-05T02:05:29.969Z,19.20
2023-05-05T02:07:56.309Z,19.18
2023-05-05T02:10:22.665Z,19.16
2023-05-05T02:12:49.070Z,19.14
2023-05-05T02:15:15.393Z,19.11
2023-05-05T02:17:41.701Z,19.08
2023-05-05T02:20:08.297Z,19.07
2023-05-05T02:22:34.890Z,19.04
2023-05-05T02:25:01.182Z,19.02
2023-05-05T02:27:27.559Z,19.00
2023-05-05T02:29:53.929Z,18.98
2023-05-05T02:32:20.297Z,18.96
2023-05-05T02:34:46.596Z,18.95
2023-05-05T02:37:12.998Z,18.92
2023-05-05T02:39:39.263Z,18.90
2023-05-05T02:42:05.467Z,18.87
2023-05-05T02:44:31.766Z,18.85
2023-05-05T02:46:57.997Z,18.82
2023-05-05T02:49:26.050Z,18.80
2023-05-05T02:51:52.341Z,18.77
2023-05-05T02:54:18.659Z,18.75
2023-05-05T02:56:44.916Z,18.74
2023-05-05T02:59:12.464Z,18.72
2023-05-05T03:01:40.177Z,18.69
2023-05-05T03:04:06.523Z,18.68
2023-05-05T03:06:32.912Z,18.66
2023-05-05T03:08:59.163Z,18.63
2023-05-05T03:11:25.858Z,18.62
2023-05-05T03:13:52.205Z,18.60
2023-05-05T03:16:18.574Z,18.58
2023-05-05T03:18:45.035Z,18.55
2023-05-05T03:21:11.404Z,18.56
2023-05-05T03:23:37.739Z,18.53
2023-05-05T03:26:04.013Z,18.51
2023-05-05T03:28:30.302Z,18.49
2023-05-05T03:30:56.555Z,18.47
2023-05-05T03:33:22.975Z,18.45
2023-05-05T03:35:49.347Z,18.45
2023-05-05T03:38:15.655Z,18.42
2023-05-05T03:40:44.676Z,18.41
2023-05-05T03:43:11.274Z,18.39
2023-05-05T03:45:37.929Z,18.37
2023-05-05T03:48:04.463Z,18.36
2023-05-05T03:50:30.827Z,18.35
2023-05-05T03:52:57.206Z,18.34
2023-05-05T03:55:23.772Z,18.33
2023-05-05T03:57:50.187Z,18.32
2023-05-05T04:00:16.574Z,18.32
2023-05-05T04:02:43.699Z,18.30
2023-05-05T04:05:10.237Z,18.28
2023-05-05T04:07:36.512Z,18.27
2023-05-05T04:10:02.857Z,18.27
2023-05-05T04:12:29.188Z,18.25
2023-05-05T04:14:55.496Z,18.24
2023-05-05T04:17:21.783Z,18.24
2023-05-05T04:19:48.100Z,18.23
2023-05-05T04:22:14.461Z,18.14
2023-05-05T04:24:40.856Z,18.22
2023-05-05T04:27:07.231Z,18.21
2023-05-05T04:29:33.584Z,18.22
2023-05-05T04:31:59.956Z,18.20
2023-05-05T04:34:26.276Z,18.20
2023-05-05T04:36:52.683Z,18.21
2023-05-05T04:39:19.029Z,18.20
2023-05-05T04:41:45.822Z,18.21
2023-05-05T04:44:12.161Z,18.22
2023-05-05T04:46:38.518Z,18.37
2023-05-05T04:49:08.227Z,18.64
2023-05-05T04:51:34.669Z,18.95
2023-05-05T04:54:01.111Z,19.24
2023-05-05T04:56:27.579Z,19.50
2023-05-05T04:58:53.912Z,19.73
2023-05-05T05:01:20.341Z,19.91
2023-05-05T05:03:56.282Z,19.95
2023-05-05T05:06:22.807Z,20.09
2023-05-05T05:08:49.180Z,20.28
2023-05-05T05:11:15.536Z,20.45
2023-05-05T05:13:41.907Z,20.61
2023-05-05T05:16:08.311Z,20.75
2023-05-05T05:18:34.866Z,20.88
2023-05-05T05:21:03.722Z,21.01
2023-05-05T05:23:30.118Z,21.11
2023-05-05T05:25:56.556Z,21.23
2023-05-05T05:28:23.101Z,21.34
2023-05-05T05:30:49.975Z,21.44
2023-05-05T05:33:16.595Z,21.55
2023-05-05T05:35:43.005Z,21.67
2023-05-05T05:38:09.371Z,21.83
2023-05-05T05:40:37.713Z,21.97
2023-05-05T05:43:04.058Z,22.11
2023-05-05T05:45:30.466Z,22.23
2023-05-05T05:47:56.838Z,22.37
2023-05-05T05:50:23.113Z,22.54
2023-05-05T05:52:49.553Z,22.62
2023-05-05T05:55:16.000Z,22.72
2023-05-05T05:57:42.437Z,22.90
2023-05-05T06:00:08.995Z,23.03
2023-05-05T06:02:36.172Z,23.20
2023-05-05T06:05:02.914Z,23.36
2023-05-05T06:07:29.315Z,23.56
2023-05-05T06:09:55.733Z,23.67
2023-05-05T06:12:22.099Z,23.84
2023-05-05T06:14:48.496Z,23.88
2023-05-05T06:17:15.275Z,24.10
2023-05-05T06:19:42.268Z,24.20
2023-05-05T06:22:08.624Z,24.26
2023-05-05T06:24:35.228Z,24.33
2023-05-05T06:27:01.611Z,24.46
2023-05-05T06:29:28.069Z,24.38
2023-05-05T06:31:54.734Z,24.15
2023-05-05T06:34:21.101Z,24.01
2023-05-05T06:36:47.496Z,23.95
2023-05-05T06:39:15.926Z,23.94
2023-05-05T06:41:42.475Z,24.03
2023-05-05T06:44:08.768Z,24.56
2023-05-05T06:46:35.194Z,24.89
2023-05-05T06:49:01.674Z,25.08
2023-05-05T06:51:28.224Z,25.24
2023-05-05T06:53:54.739Z,25.40
2023-05-05T06:56:24.357Z,25.54
2023-05-05T06:58:50.993Z,25.71
2023-05-05T07:01:17.496Z,25.72
2023-05-05T07:03:44.049Z,25.49
2023-05-05T07:06:10.529Z,25.42
2023-05-05T07:08:36.981Z,25.59
2023-05-05T07:11:03.321Z,25.82
2023-05-05T07:13:29.860Z,25.95
2023-05-05T07:15:56.264Z,26.03
2023-05-05T07:18:22.626Z,26.07
2023-05-05T07:20:49.002Z,26.21
2023-05-05T07:23:15.431Z,26.39
2023-05-05T07:25:41.750Z,26.48
2023-05-05T07:28:08.023Z,26.58
2023-05-05T07:30:34.653Z,26.77
2023-05-05T07:33:04.128Z,26.99
2023-05-05T07:35:30.530Z,27.16
2023-05-05T07:37:56.827Z,27.31
2023-05-05T07:40:23.147Z,27.45
2023-05-05T07:42:49.395Z,27.60
2023-05-05T07:45:15.629Z,27.69
2023-05-05T07:47:42.732Z,27.70
2023-05-05T07:50:09.408Z,27.73
2023-05-05T07:52:46.559Z,27.83
2023-05-05T07:55:17.675Z,27.76
2023-05-05T07:57:44.083Z,28.10
2023-05-05T08:00:10.725Z,28.27
2023-05-05T08:02:37.343Z,28.16
2023-05-05T08:05:03.983Z,28.21
2023-05-05T08:10:14.805Z,27.34
2023-05-05T08:12:41.156Z,27.12
2023-05-05T08:15:07.790Z,27.46
2023-05-05T08:17:34.414Z,27.43
2023-05-05T08:20:00.783Z,26.88
2023-05-05T08:22:27.157Z,26.50
2023-05-05T08:24:53.629Z,26.23
2023-05-05T08:27:20.196Z,26.12
2023-05-05T08:29:46.580Z,26.48
2023-05-05T08:32:12.908Z,26.21
2023-05-05T08:34:39.281Z,26.05
2023-05-05T08:37:05.755Z,26.02
2023-05-05T08:39:32.152Z,26.09
2023-05-05T08:41:58.440Z,26.76
2023-05-05T08:44:24.728Z,27.01
2023-05-05T08:46:52.466Z,27.02
2023-05-05T08:49:19.047Z,26.22
2023-05-05T08:51:45.406Z,25.86
2023-05-05T08:54:11.727Z,25.66
2023-05-05T08:56:38.059Z,25.50
2023-05-05T08:59:04.687Z,25.39
2023-05-05T09:01:31.283Z,25.29
2023-05-05T09:03:57.733Z,25.20
2023-05-05T09:06:24.544Z,25.12
2023-05-05T09:08:50.999Z,25.05
2023-05-05T09:11:17.393Z,24.96
2023-05-05T09:13:46.051Z,24.90
2023-05-05T09:16:12.654Z,24.84
2023-05-05T09:18:39.062Z,24.78
2023-05-05T09:21:08.304Z,24.75
2023-05-05T09:23:34.706Z,24.78
2023-05-05T09:26:01.168Z,24.85
2023-05-05T09:28:27.491Z,24.89
2023-05-05T09:30:53.970Z,24.92
2023-05-05T09:33:20.375Z,24.93
2023-05-05T09:35:46.681Z,24.93
2023-05-05T09:38:13.061Z,24.93
2023-05-05T09:40:39.427Z,24.92
2023-05-05T09:43:05.739Z,24.92
2023-05-05T09:45:32.445Z,24.94
2023-05-05T09:48:00.215Z,24.96
2023-05-05T09:50:27.065Z,24.97
2023-05-05T09:52:53.335Z,24.98
2023-05-05T09:55:19.806Z,24.98
2023-05-05T09:57:46.114Z,24.97
2023-05-05T10:00:12.384Z,24.96
2023-05-05T10:02:38.757Z,24.97
2023-05-05T10:05:05.733Z,24.99
2023-05-05T10:07:32.104Z,24.97
2023-05-05T10:09:58.417Z,24.98
2023-05-05T10:12:24.682Z,25.05
2023-05-05T10:14:51.205Z,25.10
2023-05-05T10:17:17.736Z,25.05
2023-05-05T10:19:44.486Z,25.00
2023-05-05T10:22:10.886Z,24.98
2023-05-05T10:24:37.274Z,24.99
2023-05-05T10:27:03.740Z,25.02
2023-05-05T10:29:30.064Z,25.14
2023-05-05T10:31:56.524Z,25.20
2023-05-05T10:34:23.486Z,25.23
2023-05-05T10:36:49.823Z,25.21
2023-05-05T10:39:16.180Z,25.21
2023-05-05T10:41:42.568Z,25.23
2023-05-05T10:44:08.922Z,25.29
2023-05-05T10:46:35.436Z,25.35
2023-05-05T10:49:02.066Z,25.35
2023-05-05T10:51:39.320Z,25.32
2023-05-05T10:54:07.102Z,25.36
2023-05-05T10:56:34.026Z,25.36
2023-05-05T10:59:03.312Z,25.37
2023-05-05T11:01:29.819Z,25.38
2023-05-05T11:03:56.553Z,25.38
2023-05-05T11:06:23.053Z,25.39
2023-05-05T11:08:49.363Z,25.39
2023-05-05T11:11:15.719Z,25.41
2023-05-05T11:13:42.007Z,25.41
2023-05-05T11:16:08.389Z,25.42
2023-05-05T11:18:35.075Z,25.43
2023-05-05T11:21:01.428Z,25.45
2023-05-05T11:23:27.806Z,25.45
2023-05-05T11:25:54.247Z,25.46
2023-05-05T11:28:20.546Z,25.45
2023-05-05T11:30:46.902Z,25.44
2023-05-05T11:33:13.305Z,25.43
2023-05-05T11:35:39.730Z,25.40
2023-05-05T11:38:06.149Z,25.38
2023-05-05T11:40:32.536Z,25.38
2023-05-05T11:42:58.840Z,25.38
2023-05-05T11:45:25.253Z,25.40
2023-05-05T11:47:51.724Z,25.40
2023-05-05T11:50:18.066Z,25.43
2023-05-05T11:52:44.403Z,25.43
2023-05-05T11:55:10.656Z,25.45
2023-05-05T11:57:37.000Z,25.47
2023-05-05T12:00:03.585Z,25.48
2023-05-05T12:02:30.990Z,25.50
2023-05-05T12:04:57.334Z,25.52
2023-05-05T12:07:23.685Z,25.54
2023-05-05T12:09:49.921Z,25.55
2023-05-05T12:12:16.204Z,25.58
2023-05-05T12:14:42.758Z,25.60
2023-05-05T12:17:09.305Z,25.63
2023-05-05T12:19:35.651Z,25.68
2023-05-05T12:22:02.297Z,25.67
2023-05-05T12:24:28.590Z,25.67
2023-05-05T12:26:54.960Z,25.64
2023-05-05T12:29:21.652Z,25.62
2023-05-05T12:31:48.130Z,25.61
2023-05-05T12:34:14.487Z,25.60
2023-05-05T12:36:40.943Z,25.59
2023-05-05T12:39:07.348Z,25.58
2023-05-05T12:41:33.831Z,25.54
2023-05-05T12:44:00.121Z,25.53
2023-05-05T12:46:26.639Z,25.53
2023-05-05T12:48:53.030Z,25.53
2023-05-05T12:51:19.384Z,25.52
2023-05-05T12:53:46.379Z,25.52
2023-05-05T12:56:12.726Z,25.52
2023-05-05T13:01:22.866Z,25.49
2023-05-05T13:03:49.247Z,25.49
2023-05-05T13:06:15.834Z,25.47
2023-05-05T13:08:42.101Z,25.46
2023-05-05T13:11:09.569Z,25.44
2023-05-05T13:13:35.813Z,25.43
2023-05-05T13:16:02.199Z,25.41
2023-05-05T13:18:28.553Z,25.41
2023-05-05T13:20:54.895Z,25.39
2023-05-05T13:23:21.215Z,25.40
2023-05-05T13:25:47.622Z,25.32
2023-05-05T13:28:13.991Z,25.32
2023-05-05T13:30:43.558Z,25.37
2023-05-05T13:33:09.957Z,25.34
2023-05-05T13:35:36.629Z,25.30
2023-05-05T13:38:02.981Z,25.27
2023-05-05T13:40:29.367Z,25.25
2023-05-05T13:42:55.747Z,25.22
2023-05-05T13:45:22.153Z,25.21
2023-05-05T13:47:48.475Z,25.19
2023-05-05T13:50:14.818Z,25.16
2023-05-05T13:52:41.240Z,25.14
2023-05-05T13:55:07.786Z,25.12
2023-05-05T13:57:34.283Z,25.11
2023-05-05T14:00:00.599Z,25.10
2023-05-05T14:02:26.998Z,25.09
2023-05-05T14:04:53.546Z,25.08
2023-05-05T14:07:19.964Z,25.07
2023-05-05T14:09:46.497Z,25.08
2023-05-05T14:12:12.832Z,25.07
2023-05-05T14:14:39.135Z,25.04
2023-05-05T14:17:05.526Z,25.02
2023-05-05T14:19:32.024Z,25.00
2023-05-05T14:21:58.326Z,25.00
2023-05-05T14:24:24.638Z,25.02
2023-05-05T14:26:50.987Z,25.02
2023-05-05T14:29:17.300Z,25.04
2023-05-05T14:31:43.535Z,25.04
2023-05-05T14:34:09.800Z,25.05
2023-05-05T14:36:36.020Z,25.07
2023-05-05T14:39:02.260Z,25.10
2023-05-05T14:41:28.500Z,25.11
2023-05-05T14:43:54.722Z,25.12
2023-05-05T14:46:21.199Z,25.12
2023-05-05T14:48:47.617Z,25.12
2023-05-05T14:51:13.895Z,25.13
2023-05-05T14:53:40.092Z,25.11
2023-05-05T14:56:06.493Z,25.11
2023-05-05T14:58:32.745Z,25.09
2023-05-05T15:00:59.029Z,25.07
2023-05-05T15:03:25.433Z,25.06
2023-05-05T15:05:51.858Z,25.03
2023-05-05T15:08:18.262Z,25.00
2023-05-05T15:10:44.765Z,24.96
2023-05-05T15:13:11.180Z,24.94
2023-05-05T15:15:37.667Z,24.93
2023-05-05T15:18:03.913Z,24.92
2023-05-05T15:20:30.168Z,24.90
2023-05-05T15:22:56.698Z,24.88
2023-05-05T15:25:22.904Z,24.85
2023-05-05T15:27:49.102Z,24.83
2023-05-05T15:30:15.376Z,24.81
2023-05-05T15:32:41.826Z,24.79
2023-05-05T15:35:08.508Z,24.77
2023-05-05T15:37:35.051Z,24.74
2023-05-05T15:40:01.327Z,24.72
2023-05-05T15:42:27.566Z,24.70
2023-05-05T15:44:53.879Z,24.68
2023-05-05T15:47:20.386Z,24.65
2023-05-05T15:49:46.955Z,24.63
2023-05-05T15:52:13.292Z,24.61
2023-05-05T15:54:39.723Z,24.58
2023-05-05T15:57:06.253Z,24.57
2023-05-05T15:59:38.126Z,24.54
2023-05-05T16:02:04.480Z,24.51
2023-05-05T16:04:30.869Z,24.49
2023-05-05T16:06:57.297Z,24.45
2023-05-05T16:09:23.685Z,24.42
2023-05-05T16:11:50.006Z,24.39
2023-05-05T16:14:16.449Z,24.36
2023-05-05T16:16:42.779Z,24.32
2023-05-05T16:19:09.222Z,24.31
2023-05-05T16:21:35.549Z,24.28
2023-05-05T16:24:01.886Z,24.25
2023-05-05T16:26:28.628Z,24.23
2023-05-05T16:28:54.998Z,24.20
2023-05-05T16:31:21.343Z,24.16
2023-05-05T16:33:47.861Z,24.14
2023-05-05T16:36:14.443Z,24.11
2023-05-05T16:38:40.745Z,24.08
2023-05-05T16:44:03.182Z,24.03
2023-05-05T16:46:29.432Z,24.00
2023-05-05T16:48:57.843Z,23.98
2023-05-05T16:51:25.094Z,23.96
2023-05-05T16:53:51.496Z,23.93
2023-05-05T16:56:17.824Z,23.90
2023-05-05T16:58:44.178Z,23.88
2023-05-05T17:01:10.511Z,23.86
2023-05-05T17:03:36.898Z,23.82
2023-05-05T17:06:03.200Z,23.80
2023-05-05T17:08:29.523Z,23.78
2023-05-05T17:10:57.092Z,23.76
2023-05-05T17:13:23.594Z,23.71
2023-05-05T17:15:49.932Z,23.69
2023-05-05T17:18:16.243Z,23.67
2023-05-05T17:20:42.626Z,23.65
2023-05-05T17:23:08.925Z,23.61
2023-05-05T17:25:35.283Z,23.58
2023-05-05T17:28:01.851Z,23.58
2023-05-05T17:30:28.300Z,23.54
2023-05-05T17:32:55.160Z,23.45
2023-05-05T17:35:21.614Z,23.51
2023-05-05T17:37:47.974Z,23.49
2023-05-05T17:40:14.418Z,23.46
2023-05-05T17:42:40.792Z,23.44
2023-05-05T17:45:07.494Z,23.42
2023-05-05T17:47:34.365Z,23.40
2023-05-05T17:50:00.726Z,23.37
2023-05-05T17:52:27.036Z,23.37
2023-05-05T17:54:53.322Z,23.35
2023-05-05T17:57:19.617Z,23.34
2023-05-05T17:59:45.894Z,23.33
2023-05-05T18:02:12.297Z,23.30
2023-05-05T18:04:38.803Z,23.29
2023-05-05T18:07:05.072Z,23.27
2023-05-05T18:09:31.323Z,23.26
2023-05-05T18:11:57.602Z,23.24
2023-05-05T18:14:24.067Z,23.21
2023-05-05T18:16:50.734Z,23.20
2023-05-05T18:19:17.165Z,23.20
2023-05-05T18:21:43.546Z,23.17
2023-05-05T18:24:19.300Z,23.15
2023-05-05T18:26:46.671Z,23.12
2023-05-05T18:29:13.089Z,23.11
2023-05-05T18:31:39.407Z,23.08
2023-05-05T18:34:05.725Z,23.06
2023-05-05T18:36:32.110Z,23.04
2023-05-05T18:38:58.395Z,23.01
2023-05-05T18:41:24.698Z,23.00
2023-05-05T18:43:51.045Z,22.99
2023-05-05T18:46:19.481Z,22.98
2023-05-05T18:48:45.776Z,22.97
2023-05-05T18:51:12.121Z,22.96
2023-05-05T18:53:38.607Z,22.95
2023-05-05T18:56:04.929Z,22.93
2023-05-05T18:58:31.270Z,22.92
2023-05-05T19:00:57.680Z,22.91
2023-05-05T19:03:24.229Z,22.89
2023-05-05T19:05:50.755Z,22.88
2023-05-05T19:08:17.048Z,22.88
2023-05-05T19:10:43.343Z,22.87
2023-05-05T19:13:09.684Z,22.85
2023-05-05T19:18:27.479Z,22.82
2023-05-05T19:20:53.796Z,22.81
2023-05-05T19:23:20.119Z,22.79
2023-05-05T19:25:46.398Z,22.78
2023-05-05T19:28:12.809Z,22.76
2023-05-05T19:30:39.408Z,22.76
2023-05-05T19:33:05.889Z,22.73
2023-05-05T19:35:32.632Z,22.72
2023-05-05T19:37:59.068Z,22.71
2023-05-05T19:40:25.705Z,22.70
2023-05-05T19:42:52.472Z,22.71
2023-05-05T19:45:18.872Z,22.71
2023-05-05T19:47:45.235Z,22.70
2023-05-05T19:50:12.013Z,22.70
2023-05-05T19:52:38.690Z,22.68
2023-05-05T19:55:04.987Z,22.68
2023-05-05T19:57:44.234Z,22.67
2023-05-05T20:00:11.016Z,22.65
2023-05-05T20:02:37.831Z,22.66
2023-05-05T20:05:04.314Z,22.63
2023-05-05T20:07:31.129Z,22.63
2023-05-05T20:09:58.528Z,22.62
2023-05-05T20:12:25.374Z,22.61
2023-05-05T20:14:51.816Z,22.59
2023-05-05T20:17:18.223Z,22.59
2023-05-05T20:19:45.791Z,22.58
2023-05-05T20:22:12.290Z,22.58
2023-05-05T20:24:38.575Z,22.57
2023-05-05T20:27:05.045Z,22.56
2023-05-05T20:29:31.432Z,22.54
2023-05-05T20:31:58.110Z,22.54
2023-05-05T20:34:25.969Z,22.53
2023-05-05T20:36:52.367Z,22.52
2023-05-05T20:39:18.717Z,22.51
2023-05-05T20:41:45.253Z,22.49
2023-05-05T20:44:11.761Z,22.49
2023-05-05T20:46:38.139Z,22.49
2023-05-05T20:49:04.498Z,22.47
2023-05-05T20:51:30.858Z,22.46
2023-05-05T20:53:57.267Z,22.46
2023-05-05T20:56:23.671Z,22.44
2023-05-05T20:58:50.032Z,22.42
2023-05-05T21:01:16.523Z,22.42
2023-05-05T21:03:43.042Z,22.40
2023-05-05T21:06:09.411Z,22.39
2023-05-05T21:08:35.752Z,22.38
2023-05-05T21:11:02.314Z,22.37
2023-05-05T21:13:28.652Z,22.36
2023-05-05T21:15:55.001Z,22.34
2023-05-05T21:18:21.393Z,22.33
2023-05-05T21:20:47.774Z,22.32
2023-05-05T21:23:15.320Z,22.28
2023-05-05T21:25:41.677Z,22.24
2023-05-05T21:28:08.114Z,22.20
2023-05-05T21:30:34.483Z,22.16
2023-05-05T21:33:00.935Z,22.13
2023-05-05T21:35:27.445Z,22.09
2023-05-05T21:37:53.771Z,22.06
2023-05-05T21:40:20.098Z,22.04
2023-05-05T21:42:46.975Z,22.01
2023-05-05T21:45:13.441Z,21.98
2023-05-05T21:47:40.230Z,21.96
2023-05-05T21:50:06.992Z,21.94
2023-05-05T21:52:33.620Z,21.92
2023-05-05T21:55:00.164Z,21.91
2023-05-05T21:57:26.501Z,21.88
2023-05-05T21:59:52.880Z,21.84
2023-05-05T22:02:19.451Z,21.83
2023-05-05T22:04:45.940Z,21.80
2023-05-05T22:07:12.415Z,21.77
2023-05-05T22:09:38.864Z,21.76
2023-05-05T22:12:05.437Z,21.72
2023-05-05T22:14:31.837Z,21.71
2023-05-05T22:16:58.103Z,21.69
2023-05-05T22:19:24.440Z,21.66
2023-05-05T22:21:50.934Z,21.64
2023-05-05T22:24:17.362Z,21.63
2023-05-05T22:26:43.757Z,21.60
2023-05-05T22:29:10.351Z,21.59
2023-05-05T22:31:36.854Z,21.56
2023-05-05T22:34:03.176Z,21.53
2023-05-05T22:36:29.456Z,21.52
2023-05-05T22:38:55.779Z,21.50
2023-05-05T22:41:22.082Z,21.48
2023-05-05T22:43:48.558Z,21.47
2023-05-05T22:46:14.945Z,21.47
2023-05-05T22:48:41.449Z,21.46
2023-05-05T22:51:07.961Z,21.44
2023-05-05T22:53:34.311Z,21.42
2023-05-05T22:56:00.681Z,21.40
2023-05-05T22:58:28.409Z,21.37
2023-05-05T23:00:55.077Z,21.36
2023-05-05T23:03:21.587Z,21.35
2023-05-05T23:05:47.966Z,21.33
2023-05-05T23:08:14.288Z,21.31
2023-05-05T23:10:40.647Z,21.29
2023-05-05T23:13:07.023Z,21.27
2023-05-05T23:15:33.527Z,21.24
2023-05-05T23:20:48.253Z,21.18
2023-05-05T23:23:14.706Z,21.16
2023-05-05T23:25:41.040Z,21.15
2023-05-05T23:28:07.420Z,21.11
2023-05-05T23:30:33.803Z,21.08
2023-05-05T23:33:00.321Z,21.06
2023-05-05T23:35:26.557Z,21.05
2023-05-05T23:37:52.887Z,21.03
2023-05-05T23:40:19.162Z,21.01
2023-05-05T23:42:45.463Z,21.00
2023-05-05T23:45:11.944Z,20.99
2023-05-05T23:47:38.416Z,20.97
2023-05-05T23:50:05.133Z,20.94
2023-05-05T23:52:31.457Z,20.92
2023-05-05T23:54:57.814Z,20.91
2023-05-05T23:57:24.165Z,20.90
2023-05-05T23:59:50.627Z,20.89
